createdAt,value
2022-11-01T00:00:16.208Z,9.757496
2022-11-01T00:01:16.242Z,9.757627
2022-11-01T00:02:16.209Z,9.757537
2022-11-01T00:03:16.186Z,9.757444
2022-11-01T00:04:16.208Z,9.757653
2022-11-01T00:05:16.168Z,9.757473
2022-11-01T00:06:16.160Z,9.757433
2022-11-01T00:07:16.145Z,9.757474
2022-11-01T00:08:16.137Z,9.758134
2022-11-01T00:09:16.161Z,9.758137
2022-11-01T00:11:16.115Z,9.757816
2022-11-01T00:12:16.115Z,9.757563
2022-11-01T00:13:16.101Z,9.757575
2022-11-01T00:14:16.118Z,9.757568
2022-11-01T00:15:16.084Z,9.757755
2022-11-01T00:16:16.079Z,9.757526
2022-11-01T00:17:16.077Z,9.757560
2022-11-01T00:18:16.060Z,9.757528
2022-11-01T00:19:16.079Z,9.757559
2022-11-01T00:20:16.037Z,9.757471
2022-11-01T00:21:16.037Z,9.757511
2022-11-01T00:22:16.036Z,9.757778
2022-11-01T00:23:16.023Z,9.757834
2022-11-01T00:24:16.045Z,9.757687
2022-11-01T00:25:15.994Z,9.757472
2022-11-01T00:26:15.987Z,9.757549
2022-11-01T00:27:15.982Z,9.757623
2022-11-01T00:28:15.967Z,9.757529
2022-11-01T00:29:15.988Z,9.757643
2022-11-01T00:30:15.954Z,9.757501
2022-11-01T00:31:15.943Z,9.757492
2022-11-01T00:32:15.937Z,9.757592
2022-11-01T00:33:15.929Z,9.757493
2022-11-01T00:34:15.953Z,9.757605
2022-11-01T00:35:15.912Z,9.757590
2022-11-01T00:36:15.904Z,9.757630
2022-11-01T00:37:15.904Z,9.757646
2022-11-01T00:38:15.888Z,9.757851
2022-11-01T00:39:15.916Z,9.757954
2022-11-01T00:40:15.873Z,9.757974
2022-11-01T00:41:15.868Z,9.757977
2022-11-01T00:42:15.862Z,9.757699
2022-11-01T00:43:15.909Z,9.757580
2022-11-01T00:44:15.871Z,9.757686
2022-11-01T00:45:15.835Z,9.757676
2022-11-01T00:46:15.823Z,9.757522
2022-11-01T00:47:15.810Z,9.757579
2022-11-01T00:48:15.808Z,9.757642
2022-11-01T00:49:15.824Z,9.757822
2022-11-01T00:50:15.779Z,9.757730
2022-11-01T00:51:16.783Z,9.757808
2022-11-01T00:52:15.769Z,9.758055
2022-11-01T00:53:15.768Z,9.758116
2022-11-01T00:54:15.782Z,9.757829
2022-11-01T00:55:15.747Z,9.757713
2022-11-01T00:56:15.734Z,9.758349
2022-11-01T00:57:15.728Z,9.758233
2022-11-01T00:58:15.716Z,9.757940
2022-11-01T00:59:15.739Z,9.757635
2022-11-01T01:00:15.710Z,9.757430
2022-11-01T01:01:15.758Z,9.757732
2022-11-01T01:02:15.838Z,9.757746
2022-11-01T01:03:15.679Z,9.757694
2022-11-01T01:04:15.702Z,9.757495
2022-11-01T01:05:15.657Z,9.757299
2022-11-01T01:06:15.644Z,9.757270
2022-11-01T01:07:15.639Z,9.757617
2022-11-01T01:08:15.630Z,9.757424
2022-11-01T01:09:15.649Z,9.757410
2022-11-01T01:10:15.613Z,9.757398
2022-11-01T01:11:15.608Z,9.757483
2022-11-01T01:12:15.601Z,9.757609
2022-11-01T01:13:15.589Z,9.757540
2022-11-01T01:14:15.699Z,9.757482
2022-11-01T01:15:15.577Z,9.757453
2022-11-01T01:16:15.561Z,9.757588
2022-11-01T01:17:15.561Z,9.757564
2022-11-01T01:18:15.548Z,9.757670
2022-11-01T01:19:15.588Z,9.757621
2022-11-01T01:20:15.534Z,9.757401
2022-11-01T01:21:15.525Z,9.757306
2022-11-01T01:22:15.520Z,9.757348
2022-11-01T01:23:15.508Z,9.757509
2022-11-01T01:24:15.533Z,9.757436
2022-11-01T01:25:15.493Z,9.757272
2022-11-01T01:26:15.482Z,9.757294
2022-11-01T01:27:15.475Z,9.757427
2022-11-01T01:28:15.465Z,9.757664
2022-11-01T01:29:15.455Z,9.757504
2022-11-01T01:30:15.477Z,9.757554
2022-11-01T01:31:15.444Z,9.757625
2022-11-01T01:32:15.431Z,9.757559
2022-11-01T01:33:15.492Z,9.757484
2022-11-01T01:34:15.416Z,9.757471
2022-11-01T01:35:15.429Z,9.757762
2022-11-01T01:36:15.401Z,9.757616
2022-11-01T01:37:15.392Z,9.757530
2022-11-01T01:38:15.377Z,9.757396
2022-11-01T01:39:15.369Z,9.757622
2022-11-01T01:40:15.390Z,9.757607
2022-11-01T01:41:15.364Z,9.757527
2022-11-01T01:42:15.364Z,9.757445
2022-11-01T01:43:15.365Z,9.757405
2022-11-01T01:44:15.328Z,9.757540
2022-11-01T01:45:15.360Z,9.757507
2022-11-01T01:46:15.322Z,9.757485
2022-11-01T01:47:15.307Z,9.757479
2022-11-01T01:48:15.373Z,9.757766
2022-11-01T01:49:15.286Z,9.757681
2022-11-01T01:50:15.320Z,9.757519
2022-11-01T01:51:15.269Z,9.757464
2022-11-01T01:52:15.259Z,9.757437
2022-11-01T01:53:15.262Z,9.757591
2022-11-01T01:54:15.248Z,9.757552
2022-11-01T01:55:15.269Z,9.757450
2022-11-01T01:56:15.245Z,9.757313
2022-11-01T01:57:15.259Z,9.757414
2022-11-01T01:58:15.211Z,9.757398
2022-11-01T01:59:15.199Z,9.757467
2022-11-01T02:00:15.223Z,9.757452
2022-11-01T02:01:15.310Z,9.757440
2022-11-01T02:02:15.246Z,9.757329
2022-11-01T02:03:15.172Z,9.757450
2022-11-01T02:04:15.165Z,9.757393
2022-11-01T02:05:15.182Z,9.757410
2022-11-01T02:06:15.174Z,9.757384
2022-11-01T02:07:15.133Z,9.757385
2022-11-01T02:08:15.124Z,9.757385
2022-11-01T02:09:15.112Z,9.757421
2022-11-01T02:10:15.131Z,9.757429
2022-11-01T02:11:15.096Z,9.757448
2022-11-01T02:12:15.102Z,9.757310
2022-11-01T02:13:15.086Z,9.757479
2022-11-01T02:14:15.074Z,9.757477
2022-11-01T02:15:15.109Z,9.757514
2022-11-01T02:16:15.056Z,9.757604
2022-11-01T02:17:15.051Z,9.757481
2022-11-01T02:18:15.039Z,9.757701
2022-11-01T02:19:15.034Z,9.757392
2022-11-01T02:20:15.068Z,9.757479
2022-11-01T02:21:15.013Z,9.757534
2022-11-01T02:22:15.012Z,9.757418
2022-11-01T02:23:14.994Z,9.757558
2022-11-01T02:24:14.982Z,9.757627
2022-11-01T02:25:15.006Z,9.757641
2022-11-01T02:26:14.971Z,9.757689
2022-11-01T02:27:14.964Z,9.757484
2022-11-01T02:28:14.957Z,9.757552
2022-11-01T02:29:14.945Z,9.757311
2022-11-01T02:30:14.963Z,9.757494
2022-11-01T02:31:14.925Z,9.757442
2022-11-01T02:32:14.915Z,9.757415
2022-11-01T02:33:14.930Z,9.757331
2022-11-01T02:34:14.907Z,9.757373
2022-11-01T02:35:14.926Z,9.757516
2022-11-01T02:36:14.883Z,9.757697
2022-11-01T02:37:14.880Z,9.757700
2022-11-01T02:38:14.874Z,9.757556
2022-11-01T02:40:15.890Z,9.757657
2022-11-01T02:41:14.845Z,9.757785
2022-11-01T02:42:14.837Z,9.758001
2022-11-01T02:43:14.826Z,9.757873
2022-11-01T02:44:14.817Z,9.757721
2022-11-01T02:45:14.843Z,9.757671
2022-11-01T02:46:14.800Z,9.757542
2022-11-01T02:47:14.795Z,9.757651
2022-11-01T02:48:14.781Z,9.757643
2022-11-01T02:49:14.777Z,9.757636
2022-11-01T02:50:14.799Z,9.757558
2022-11-01T02:51:14.757Z,9.757557
2022-11-01T02:52:14.749Z,9.757596
2022-11-01T02:53:14.752Z,9.757587
2022-11-01T02:54:14.738Z,9.757595
2022-11-01T02:55:14.761Z,9.757563
2022-11-01T02:56:14.721Z,9.757684
2022-11-01T02:57:14.711Z,9.757650
2022-11-01T02:58:14.695Z,9.757546
2022-11-01T02:59:14.691Z,9.757487
2022-11-01T03:00:14.708Z,9.757491
2022-11-01T03:01:15.829Z,9.757575
2022-11-01T03:02:14.713Z,9.757697
2022-11-01T03:03:14.656Z,9.757600
2022-11-01T03:04:14.650Z,9.757504
2022-11-01T03:05:14.676Z,9.757512
2022-11-01T03:06:14.640Z,9.757527
2022-11-01T03:07:14.621Z,9.757293
2022-11-01T03:08:14.612Z,9.757320
2022-11-01T03:09:14.607Z,9.757442
2022-11-01T03:10:14.591Z,9.757401
2022-11-01T03:11:14.618Z,9.757575
2022-11-01T03:12:14.588Z,9.757593
2022-11-01T03:13:14.573Z,9.757419
2022-11-01T03:14:14.560Z,9.757537
2022-11-01T03:15:14.582Z,9.757465
2022-11-01T03:16:14.546Z,9.757460
2022-11-01T03:17:14.539Z,9.757323
2022-11-01T03:18:14.528Z,9.757396
2022-11-01T03:19:14.533Z,9.757433
2022-11-01T03:20:14.512Z,9.757377
2022-11-01T03:21:14.534Z,9.757364
2022-11-01T03:22:14.493Z,9.757484
2022-11-01T03:23:14.491Z,9.757609
2022-11-01T03:24:14.483Z,9.757650
2022-11-01T03:25:14.475Z,9.757533
2022-11-01T03:26:14.492Z,9.757485
2022-11-01T03:27:14.458Z,9.757652
2022-11-01T03:28:14.455Z,9.757516
2022-11-01T03:29:14.435Z,9.757514
2022-11-01T03:30:14.431Z,9.757402
2022-11-01T03:31:14.451Z,9.757533
2022-11-01T03:32:14.428Z,9.757491
2022-11-01T03:33:14.403Z,9.757612
2022-11-01T03:34:14.398Z,9.757469
2022-11-01T03:35:14.395Z,9.757474
2022-11-01T03:36:14.904Z,9.757550
2022-11-01T03:37:14.373Z,9.757516
2022-11-01T03:38:14.365Z,9.757445
2022-11-01T03:39:14.357Z,9.757557
2022-11-01T03:40:14.348Z,9.757597
2022-11-01T03:41:14.367Z,9.757602
2022-11-01T03:42:14.325Z,9.757757
2022-11-01T03:43:14.319Z,9.757684
2022-11-01T03:44:14.319Z,9.757586
2022-11-01T03:45:14.344Z,9.757560
2022-11-01T03:46:14.325Z,9.757601
2022-11-01T03:47:15.285Z,9.757586
2022-11-01T03:48:14.276Z,9.757568
2022-11-01T03:49:14.270Z,9.757528
2022-11-01T03:50:14.261Z,9.757448
2022-11-01T03:51:14.280Z,9.757545
2022-11-01T03:52:14.242Z,9.757377
2022-11-01T03:53:14.231Z,9.757549
2022-11-01T03:54:14.224Z,9.757596
2022-11-01T03:55:14.217Z,9.757860
2022-11-01T03:56:14.261Z,9.758227
2022-11-01T03:57:14.198Z,9.758077
2022-11-01T03:58:14.193Z,9.757698
2022-11-01T03:59:14.184Z,9.757659
2022-11-01T04:00:14.183Z,9.757836
2022-11-01T04:01:14.287Z,9.757825
2022-11-01T04:02:14.246Z,9.757971
2022-11-01T04:03:14.159Z,9.758097
2022-11-01T04:04:14.143Z,9.757546
2022-11-01T04:05:14.133Z,9.757549
2022-11-01T04:06:14.161Z,9.757511
2022-11-01T04:07:14.134Z,9.757498
2022-11-01T04:08:14.114Z,9.757494
2022-11-01T04:09:14.094Z,9.757648
2022-11-01T04:10:14.089Z,9.757678
2022-11-01T04:11:14.087Z,9.757694
2022-11-01T04:12:14.103Z,9.757643
2022-11-01T04:13:14.058Z,9.757590
2022-11-01T04:14:14.060Z,9.757602
2022-11-01T04:15:14.040Z,9.757558
2022-11-01T04:16:14.039Z,9.757551
2022-11-01T04:17:14.053Z,9.757552
2022-11-01T04:18:14.015Z,9.757434
2022-11-01T04:19:14.004Z,9.757400
2022-11-01T04:20:14.000Z,9.757565
2022-11-01T04:21:13.989Z,9.757544
2022-11-01T04:22:14.009Z,9.757551
2022-11-01T04:23:13.979Z,9.757515
2022-11-01T04:24:13.966Z,9.757545
2022-11-01T04:25:13.960Z,9.757541
2022-11-01T04:26:13.969Z,9.757661
2022-11-01T04:27:13.971Z,9.757638
2022-11-01T04:28:13.941Z,9.757648
2022-11-01T04:29:13.930Z,9.757737
2022-11-01T04:30:13.915Z,9.757714
2022-11-01T04:31:13.906Z,9.757632
2022-11-01T04:32:14.935Z,9.757473
2022-11-01T04:33:13.896Z,9.757457
2022-11-01T04:34:13.893Z,9.757636
2022-11-01T04:35:13.876Z,9.757884
2022-11-01T04:36:13.873Z,9.758122
2022-11-01T04:37:13.891Z,9.758008
2022-11-01T04:38:13.852Z,9.757916
2022-11-01T04:39:13.842Z,9.757902
2022-11-01T04:40:13.831Z,9.758003
2022-11-01T04:41:13.825Z,9.757791
2022-11-01T04:42:13.853Z,9.757697
2022-11-01T04:43:13.811Z,9.757492
2022-11-01T04:44:13.797Z,9.757393
2022-11-01T04:45:13.792Z,9.757372
2022-11-01T04:46:13.776Z,9.757427
2022-11-01T04:47:13.770Z,9.757417
2022-11-01T04:48:13.909Z,9.757402
2022-11-01T04:49:13.757Z,9.757407
2022-11-01T04:50:13.748Z,9.757402
2022-11-01T04:51:13.735Z,9.757398
2022-11-01T04:52:13.729Z,9.757380
2022-11-01T04:53:13.751Z,9.757413
2022-11-01T04:54:13.719Z,9.757404
2022-11-01T04:55:13.704Z,9.757425
2022-11-01T04:56:13.695Z,9.757443
2022-11-01T04:57:13.696Z,9.757498
2022-11-01T04:58:13.704Z,9.757394
2022-11-01T04:59:13.666Z,9.757406
2022-11-01T05:00:13.658Z,9.757449
2022-11-01T05:01:13.827Z,9.757360
2022-11-01T05:02:13.716Z,9.757421
2022-11-01T05:03:13.660Z,9.757431
2022-11-01T05:04:13.629Z,9.757452
2022-11-01T05:05:13.618Z,9.757417
2022-11-01T05:06:13.615Z,9.757491
2022-11-01T05:07:13.600Z,9.757500
2022-11-01T05:08:13.619Z,9.757543
2022-11-01T05:09:13.582Z,9.757495
2022-11-01T05:10:13.577Z,9.757403
2022-11-01T05:11:13.565Z,9.757465
2022-11-01T05:12:13.561Z,9.757493
2022-11-01T05:13:13.582Z,9.757406
2022-11-01T05:14:13.547Z,9.757501
2022-11-01T05:15:13.533Z,9.757421
2022-11-01T05:16:19.431Z,9.757456
2022-11-01T05:17:15.522Z,9.757429
2022-11-01T05:18:13.539Z,9.757408
2022-11-01T05:19:13.499Z,9.757334
2022-11-01T05:20:13.491Z,9.757423
2022-11-01T05:21:13.484Z,9.757457
2022-11-01T05:22:13.484Z,9.757406
2022-11-01T05:23:13.497Z,9.757538
2022-11-01T05:24:13.460Z,9.757454
2022-11-01T05:25:13.449Z,9.757374
2022-11-01T05:26:13.446Z,9.757409
2022-11-01T05:27:13.429Z,9.757490
2022-11-01T05:28:13.455Z,9.757547
2022-11-01T05:29:24.363Z,9.757451
2022-11-01T05:30:15.423Z,9.757562
2022-11-01T05:31:13.398Z,9.757544
2022-11-01T05:32:13.399Z,9.757487
2022-11-01T05:33:13.437Z,9.757418
2022-11-01T05:34:13.373Z,9.757574
2022-11-01T05:35:13.365Z,9.757530
2022-11-01T05:36:13.358Z,9.757517
2022-11-01T05:37:13.353Z,9.757436
2022-11-01T05:38:13.369Z,9.757575
2022-11-01T05:39:13.334Z,9.757622
2022-11-01T05:40:13.328Z,9.757771
2022-11-01T05:42:14.443Z,9.757404
2022-11-01T05:43:13.319Z,9.757451
2022-11-01T05:44:14.296Z,9.757603
2022-11-01T05:45:13.290Z,9.757540
2022-11-01T05:46:13.276Z,9.757473
2022-11-01T05:47:17.202Z,9.757536
2022-11-01T05:48:14.289Z,9.757648
2022-11-01T05:49:13.245Z,9.757483
2022-11-01T05:50:13.236Z,9.757332
2022-11-01T05:51:13.225Z,9.757512
2022-11-01T05:52:13.219Z,9.757633
2022-11-01T05:53:13.247Z,9.757667
2022-11-01T05:54:13.202Z,9.757502
2022-11-01T05:55:13.199Z,9.757662
2022-11-01T05:56:13.184Z,9.757632
2022-11-01T05:57:13.182Z,9.757442
2022-11-01T05:58:13.199Z,9.757664
2022-11-01T05:59:13.159Z,9.757594
2022-11-01T06:00:13.155Z,9.757596
2022-11-01T06:01:13.199Z,9.757588
2022-11-01T06:02:13.167Z,9.757628
2022-11-01T06:03:13.157Z,9.757677
2022-11-01T06:04:13.122Z,9.757567
2022-11-01T06:05:13.112Z,9.757545
2022-11-01T06:06:13.110Z,9.757565
2022-11-01T06:07:13.092Z,9.757630
2022-11-01T06:08:13.105Z,9.757509
2022-11-01T06:09:13.074Z,9.757443
2022-11-01T06:10:13.071Z,9.757463
2022-11-01T06:11:13.121Z,9.757457
2022-11-01T06:12:13.203Z,9.757518
2022-11-01T06:13:13.207Z,9.757525
2022-11-01T06:14:13.042Z,9.757487
2022-11-01T06:15:13.022Z,9.757606
2022-11-01T06:16:13.014Z,9.757642
2022-11-01T06:17:13.006Z,9.757566
2022-11-01T06:18:13.056Z,9.757481
2022-11-01T06:19:12.990Z,9.757538
2022-11-01T06:20:12.981Z,9.757610
2022-11-01T06:21:12.972Z,9.757552
2022-11-01T06:22:12.961Z,9.757574
2022-11-01T06:23:12.984Z,9.757552
2022-11-01T06:24:12.944Z,9.757421
2022-11-01T06:25:12.937Z,9.757472
2022-11-01T06:26:12.935Z,9.757557
2022-11-01T06:27:12.998Z,9.757604
2022-11-01T06:28:12.943Z,9.757574
2022-11-01T06:29:12.922Z,9.757654
2022-11-01T06:30:12.886Z,9.757656
2022-11-01T06:31:13.885Z,9.757565
2022-11-01T06:32:12.873Z,9.757403
2022-11-01T06:33:12.924Z,9.757457
2022-11-01T06:34:12.871Z,9.757529
2022-11-01T06:35:12.849Z,9.757722
2022-11-01T06:36:13.838Z,9.757615
2022-11-01T06:37:12.835Z,9.757577
2022-11-01T06:38:12.871Z,9.757421
2022-11-01T06:39:12.815Z,9.757463
2022-11-01T06:40:12.808Z,9.757510
2022-11-01T06:41:12.889Z,9.757375
2022-11-01T06:42:12.798Z,9.757457
2022-11-01T06:43:12.811Z,9.757585
2022-11-01T06:44:12.778Z,9.757626
2022-11-01T06:45:12.769Z,9.757622
2022-11-01T06:46:12.761Z,9.757652
2022-11-01T06:47:12.746Z,9.757577
2022-11-01T06:48:12.768Z,9.757576
2022-11-01T06:49:16.425Z,9.757525
2022-11-01T06:50:14.723Z,9.757469
2022-11-01T06:51:12.715Z,9.757552
2022-11-01T06:52:12.698Z,9.757522
2022-11-01T06:53:12.731Z,9.757602
2022-11-01T06:54:12.686Z,9.757411
2022-11-01T06:55:12.755Z,9.757545
2022-11-01T06:56:12.667Z,9.757533
2022-11-01T06:57:12.660Z,9.757599
2022-11-01T06:58:12.683Z,9.757682
2022-11-01T06:59:12.652Z,9.757670
2022-11-01T07:00:12.631Z,9.757630
2022-11-01T07:01:12.735Z,9.757622
2022-11-01T07:02:14.765Z,9.757736
2022-11-01T07:03:13.651Z,9.757795
2022-11-01T07:04:12.677Z,9.757683
2022-11-01T07:05:12.593Z,9.757661
2022-11-01T07:06:12.593Z,9.757650
2022-11-01T07:07:12.573Z,9.757496
2022-11-01T07:08:12.598Z,9.757391
2022-11-01T07:09:12.561Z,9.757590
2022-11-01T07:10:12.557Z,9.757479
2022-11-01T07:11:12.547Z,9.757549
2022-11-01T07:12:12.534Z,9.757517
2022-11-01T07:13:12.534Z,9.757290
2022-11-01T07:14:12.555Z,9.757459
2022-11-01T07:15:12.514Z,9.757583
2022-11-01T07:16:12.505Z,9.757368
2022-11-01T07:17:12.511Z,9.757402
2022-11-01T07:18:12.519Z,9.757447
2022-11-01T07:19:12.478Z,9.757463
2022-11-01T07:20:12.472Z,9.757447
2022-11-01T07:21:12.460Z,9.757509
2022-11-01T07:22:12.456Z,9.757471
2022-11-01T07:23:13.485Z,9.757498
2022-11-01T07:24:12.437Z,9.757472
2022-11-01T07:25:12.432Z,9.757446
2022-11-01T07:26:12.423Z,9.757567
2022-11-01T07:27:16.414Z,9.757553
2022-11-01T07:28:13.414Z,9.757579
2022-11-01T07:29:12.437Z,9.757530
2022-11-01T07:30:12.399Z,9.757470
2022-11-01T07:31:12.385Z,9.757550
2022-11-01T07:32:12.378Z,9.757546
2022-11-01T07:33:12.366Z,9.757531
2022-11-01T07:34:13.396Z,9.757467
2022-11-01T07:35:12.367Z,9.757489
2022-11-01T07:36:12.351Z,9.757433
2022-11-01T07:37:12.337Z,9.757177
2022-11-01T07:38:13.363Z,9.757391
2022-11-01T07:39:13.356Z,9.757416
2022-11-01T07:40:12.320Z,9.757386
2022-11-01T07:41:12.304Z,9.757475
2022-11-01T07:42:12.286Z,9.757551
2022-11-01T07:43:13.286Z,9.757538
2022-11-01T07:44:12.308Z,9.757550
2022-11-01T07:45:13.260Z,9.757536
2022-11-01T07:46:13.261Z,9.757519
2022-11-01T07:47:12.290Z,9.757504
2022-11-01T07:48:12.243Z,9.757577
2022-11-01T07:49:12.399Z,9.757564
2022-11-01T07:50:12.229Z,9.757429
2022-11-01T07:51:12.400Z,9.757388
2022-11-01T07:52:12.212Z,9.757481
2022-11-01T07:53:12.206Z,9.757368
2022-11-01T07:54:12.224Z,9.757183
2022-11-01T07:55:12.183Z,9.757375
2022-11-01T07:56:12.187Z,9.757366
2022-11-01T07:57:12.166Z,9.757483
2022-11-01T07:58:12.156Z,9.757459
2022-11-01T07:59:12.189Z,9.757663
2022-11-01T08:00:12.151Z,9.757813
2022-11-01T08:01:12.285Z,9.757502
2022-11-01T08:02:12.183Z,9.757504
2022-11-01T08:03:12.118Z,9.757458
2022-11-01T08:04:12.287Z,9.757556
2022-11-01T08:05:12.095Z,9.757462
2022-11-01T08:06:12.164Z,9.757457
2022-11-01T08:07:12.087Z,9.757426
2022-11-01T08:08:12.068Z,9.757447
2022-11-01T08:09:12.091Z,9.757502
2022-11-01T08:10:12.055Z,9.757441
2022-11-01T08:11:12.050Z,9.757343
2022-11-01T08:12:12.043Z,9.757477
2022-11-01T08:13:12.032Z,9.757575
2022-11-01T08:14:12.413Z,9.757601
2022-11-01T08:15:13.010Z,9.757535
2022-11-01T08:16:12.005Z,9.757511
2022-11-01T08:17:11.991Z,9.757513
2022-11-01T08:18:11.992Z,9.757597
2022-11-01T08:19:12.005Z,9.757554
2022-11-01T08:20:11.971Z,9.757440
2022-11-01T08:21:11.957Z,9.757650
2022-11-01T08:22:11.955Z,9.757548
2022-11-01T08:23:11.958Z,9.757534
2022-11-01T08:24:11.967Z,9.757689
2022-11-01T08:25:11.930Z,9.757594
2022-11-01T08:26:11.920Z,9.757630
2022-11-01T08:27:11.910Z,9.757578
2022-11-01T08:28:11.906Z,9.757610
2022-11-01T08:29:11.920Z,9.757673
2022-11-01T08:30:11.883Z,9.757533
2022-11-01T08:31:11.877Z,9.757445
2022-11-01T08:32:11.863Z,9.757542
2022-11-01T08:33:11.861Z,9.757528
2022-11-01T08:34:15.987Z,9.757537
2022-11-01T08:35:12.862Z,9.757524
2022-11-01T08:36:11.832Z,9.757819
2022-11-01T08:37:11.824Z,9.757460
2022-11-01T08:38:11.818Z,9.757526
2022-11-01T08:39:11.851Z,9.757737
2022-11-01T08:40:11.798Z,9.757966
2022-11-01T08:41:11.796Z,9.757929
2022-11-01T08:42:11.782Z,9.757776
2022-11-01T08:43:11.777Z,9.757714
2022-11-01T08:44:11.798Z,9.757661
2022-11-01T08:45:11.761Z,9.757724
2022-11-01T08:46:11.750Z,9.757692
2022-11-01T08:47:11.741Z,9.757764
2022-11-01T08:48:11.731Z,9.757835
2022-11-01T08:49:11.745Z,9.757763
2022-11-01T08:50:11.717Z,9.757576
2022-11-01T08:51:11.708Z,9.757109
2022-11-01T08:52:11.699Z,9.757357
2022-11-01T08:53:11.696Z,9.757695
2022-11-01T08:54:11.713Z,9.757707
2022-11-01T08:55:11.672Z,9.757584
2022-11-01T08:56:11.674Z,9.757588
2022-11-01T08:57:11.656Z,9.757526
2022-11-01T08:58:11.656Z,9.757618
2022-11-01T08:59:11.664Z,9.757290
2022-11-01T09:00:11.638Z,9.757415
2022-11-01T09:01:11.691Z,9.757446
2022-11-01T09:02:11.775Z,9.757612
2022-11-01T09:03:11.606Z,9.757792
2022-11-01T09:04:11.624Z,9.757651
2022-11-01T09:05:11.589Z,9.757549
2022-11-01T09:06:11.591Z,9.757416
2022-11-01T09:07:11.579Z,9.757501
2022-11-01T09:08:11.563Z,9.757471
2022-11-01T09:09:12.588Z,9.757472
2022-11-01T09:10:11.564Z,9.757594
2022-11-01T09:11:11.557Z,9.757450
2022-11-01T09:12:14.471Z,9.757417
2022-11-01T09:13:12.526Z,9.757329
2022-11-01T09:14:11.567Z,9.757482
2022-11-01T09:15:11.507Z,9.757458
2022-11-01T09:16:11.526Z,9.757459
2022-11-01T09:17:11.501Z,9.757407
2022-11-01T09:18:11.486Z,9.757421
2022-11-01T09:19:11.566Z,9.757493
2022-11-01T09:20:11.478Z,9.757481
2022-11-01T09:21:11.479Z,9.757344
2022-11-01T09:22:11.451Z,9.757478
2022-11-01T09:23:11.443Z,9.757474
2022-11-01T09:24:11.464Z,9.757509
2022-11-01T09:25:11.432Z,9.757526
2022-11-01T09:26:11.416Z,9.757399
2022-11-01T09:27:11.413Z,9.757316
2022-11-01T09:28:11.400Z,9.757554
2022-11-01T09:29:11.423Z,9.757407
2022-11-01T09:30:11.389Z,9.757407
2022-11-01T09:31:22.312Z,9.757315
2022-11-01T09:32:13.372Z,9.757352
2022-11-01T09:33:11.362Z,9.757414
2022-11-01T09:34:11.453Z,9.757425
2022-11-01T09:35:11.342Z,9.757237
2022-11-01T09:36:11.337Z,9.757301
2022-11-01T09:37:11.328Z,9.757524
2022-11-01T09:38:11.323Z,9.757506
2022-11-01T09:39:11.353Z,9.757478
2022-11-01T09:40:11.312Z,9.757534
2022-11-01T09:41:11.296Z,9.757524
2022-11-01T09:42:11.296Z,9.757501
2022-11-01T09:43:11.287Z,9.757486
2022-11-01T09:44:11.298Z,9.757127
2022-11-01T09:45:11.266Z,9.757409
2022-11-01T09:46:11.300Z,9.757513
2022-11-01T09:47:11.250Z,9.757446
2022-11-01T09:48:11.238Z,9.757499
2022-11-01T09:49:11.260Z,9.757545
2022-11-01T09:50:11.218Z,9.757470
2022-11-01T09:51:11.215Z,9.757470
2022-11-01T09:52:11.200Z,9.757396
2022-11-01T09:53:11.198Z,9.757462
2022-11-01T09:54:11.216Z,9.757481
2022-11-01T09:55:11.182Z,9.757478
2022-11-01T09:56:11.175Z,9.757490
2022-11-01T09:57:11.171Z,9.757410
2022-11-01T09:58:11.149Z,9.757447
2022-11-01T09:59:11.173Z,9.757483
2022-11-01T10:00:11.136Z,9.757442
2022-11-01T10:01:11.240Z,9.757367
2022-11-01T10:02:11.156Z,9.757493
2022-11-01T10:04:12.134Z,9.757553
2022-11-01T10:05:13.144Z,9.757557
2022-11-01T10:06:12.089Z,9.757567
2022-11-01T10:07:11.080Z,9.757755
2022-11-01T10:08:11.068Z,9.757781
2022-11-01T10:09:11.086Z,9.757700
2022-11-01T10:10:11.052Z,9.757814
2022-11-01T10:11:11.048Z,9.757859
2022-11-01T10:12:11.039Z,9.757597
2022-11-01T10:13:11.028Z,9.757635
2022-11-01T10:14:11.048Z,9.757604
2022-11-01T10:15:11.009Z,9.757646
2022-11-01T10:16:11.006Z,9.757681
2022-11-01T10:17:10.990Z,9.757644
2022-11-01T10:18:10.991Z,9.757724
2022-11-01T10:19:10.982Z,9.757728
2022-11-01T10:20:11.001Z,9.757616
2022-11-01T10:21:10.953Z,9.757562
2022-11-01T10:22:11.948Z,9.757646
2022-11-01T10:23:10.939Z,9.757792
2022-11-01T10:24:10.928Z,9.757847
2022-11-01T10:25:10.949Z,9.757780
2022-11-01T10:26:10.916Z,9.757627
2022-11-01T10:27:10.899Z,9.757419
2022-11-01T10:28:10.894Z,9.757735
2022-11-01T10:29:10.898Z,9.757677
2022-11-01T10:30:10.907Z,9.757724
2022-11-01T10:31:10.875Z,9.757609
2022-11-01T10:32:10.859Z,9.757565
2022-11-01T10:33:10.855Z,9.757541
2022-11-01T10:34:10.851Z,9.757936
2022-11-01T10:35:10.863Z,9.757704
2022-11-01T10:36:10.829Z,9.757659
2022-11-01T10:37:10.818Z,9.757473
2022-11-01T10:38:23.645Z,9.757721
2022-11-01T10:40:13.127Z,9.757640
2022-11-01T10:41:10.795Z,9.757795
2022-11-01T10:42:10.784Z,9.757627
2022-11-01T10:43:10.779Z,9.757599
2022-11-01T10:44:10.764Z,9.757600
2022-11-01T10:45:10.779Z,9.757537
2022-11-01T10:46:10.754Z,9.757543
2022-11-01T10:47:10.738Z,9.757510
2022-11-01T10:48:10.731Z,9.757514
2022-11-01T10:49:10.721Z,9.757545
2022-11-01T10:50:10.750Z,9.757666
2022-11-01T10:51:10.711Z,9.757684
2022-11-01T10:52:10.706Z,9.757636
2022-11-01T10:53:10.732Z,9.757585
2022-11-01T10:54:10.683Z,9.757520
2022-11-01T10:55:10.702Z,9.757665
2022-11-01T10:56:10.664Z,9.757625
2022-11-01T10:57:10.654Z,9.757638
2022-11-01T10:58:10.663Z,9.757590
2022-11-01T10:59:10.632Z,9.757577
2022-11-01T11:00:10.657Z,9.757583
2022-11-01T11:01:10.720Z,9.757576
2022-11-01T11:02:10.752Z,9.757516
2022-11-01T11:03:10.636Z,9.757544
2022-11-01T11:04:10.590Z,9.757593
2022-11-01T11:05:10.616Z,9.757618
2022-11-01T11:06:10.576Z,9.757591
2022-11-01T11:07:10.565Z,9.757940
2022-11-01T11:08:10.555Z,9.757988
2022-11-01T11:09:10.549Z,9.757632
2022-11-01T11:10:10.590Z,9.757627
2022-11-01T11:11:10.554Z,9.757719
2022-11-01T11:12:10.527Z,9.757425
2022-11-01T11:13:10.514Z,9.757314
2022-11-01T11:14:10.522Z,9.757328
2022-11-01T11:15:10.552Z,9.757207
2022-11-01T11:16:10.500Z,9.757480
2022-11-01T11:17:10.489Z,9.757575
2022-11-01T11:18:10.475Z,9.757590
2022-11-01T11:19:10.469Z,9.757267
2022-11-01T11:20:10.494Z,9.757207
2022-11-01T11:21:10.462Z,9.757355
2022-11-01T11:22:10.457Z,9.757276
2022-11-01T11:23:10.436Z,9.757588
2022-11-01T11:24:10.428Z,9.757664
2022-11-01T11:25:10.459Z,9.757442
2022-11-01T11:26:10.417Z,9.757506
2022-11-01T11:27:10.409Z,9.757625
2022-11-01T11:28:10.420Z,9.757551
2022-11-01T11:29:10.392Z,9.757368
2022-11-01T11:30:10.413Z,9.757433
2022-11-01T11:31:10.371Z,9.757804
2022-11-01T11:32:10.363Z,9.757849
2022-11-01T11:33:10.353Z,9.757622
2022-11-01T11:34:10.347Z,9.757694
2022-11-01T11:35:10.410Z,9.757764
2022-11-01T11:36:10.332Z,9.757674
2022-11-01T11:37:10.325Z,9.757736
2022-11-01T11:38:10.317Z,9.757696
2022-11-01T11:39:10.304Z,9.757868
2022-11-01T11:40:10.326Z,9.757867
2022-11-01T11:41:10.292Z,9.757922
2022-11-01T11:42:10.285Z,9.757728
2022-11-01T11:44:11.271Z,9.757677
2022-11-01T11:45:10.293Z,9.757582
2022-11-01T11:46:10.250Z,9.757566
2022-11-01T11:47:10.243Z,9.757397
2022-11-01T11:48:10.230Z,9.757511
2022-11-01T11:49:10.222Z,9.757519
2022-11-01T11:50:10.254Z,9.757635